Time;durP1;ratioP1;P1;durP2;ratioP2;P2;SDS_P1;SDS_P2;PMS_P1;PMS_P2;Temp;Humidity;BMP_temperature;BMP_pressure;BME280_temperature;BME280_humidity;BME280_pressure;Samples;Min_cycle;Max_cycle;Signal;HPM_P1;HPM_P2
2023/10/05 00:01:04;;;;;;;13.77;3.60;;;;;;;;;;5010987;28;20104;-67
2023/10/05 00:03:30;;;;;;;16.60;3.83;;;;;;;;;;5022962;28;20025;-68
2023/10/05 00:06:03;;;;;;;9.65;3.45;;;;;;;;;;5030929;28;20074;-64
2023/10/05 00:08:28;;;;;;;11.00;4.32;;;;;;;;;;5020608;28;20108;-63
2023/10/05 00:10:54;;;;;;;15.73;3.65;;;;;;;;;;5025850;28;20116;-67
2023/10/05 00:13:19;;;;;;;13.43;4.32;;;;;;;;;;5022752;28;20426;-67
2023/10/05 00:15:45;;;;;;;8.85;3.20;;;;;;;;;;5030503;28;20010;-64
2023/10/05 00:18:14;;;;;;;8.23;3.65;;;;;;;;;;5030507;28;20040;-67
2023/10/05 00:20:41;;;;;;;10.73;4.22;;;;;;;;;;5023780;28;20017;-67
2023/10/05 00:23:10;;;;;;;12.35;3.42;;;;;;;;;;5026409;28;20017;-65
2023/10/05 00:25:37;;;;;;;9.10;3.80;;;;;;;;;;5014317;28;20031;-64
2023/10/05 00:28:08;;;;;;;12.85;3.45;;;;;;;;;;5024994;28;20018;-67
2023/10/05 00:30:34;;;;;;;11.93;3.83;;;;;;;;;;5029071;28;20109;-68
2023/10/05 00:33:00;;;;;;;11.82;3.60;;;;;;;;;;5019753;28;20049;-66
2023/10/05 00:35:32;;;;;;;10.00;3.42;;;;;;;;;;5028302;28;20026;-67
2023/10/05 00:38:09;;;;;;;13.23;3.58;;;;;;;;;;5034242;28;20067;-65
2023/10/05 00:40:36;;;;;;;13.63;3.65;;;;;;;;;;5009367;28;20096;-66
2023/10/05 00:43:24;;;;;;;12.35;3.38;;;;;;;;;;5023360;28;20014;-64
2023/10/05 00:45:50;;;;;;;11.02;3.80;;;;;;;;;;5023587;28;20044;-67
2023/10/05 00:51:04;;;;;;;11.70;3.80;;;;;;;;;;5023687;28;20052;-68
2023/10/05 00:53:30;;;;;;;10.90;3.28;;;;;;;;;;5024860;28;20053;-67
2023/10/05 00:56:07;;;;;;;11.50;3.63;;;;;;;;;;5026469;28;20041;-64
2023/10/05 00:58:37;;;;;;;11.50;2.97;;;;;;;;;;5021875;28;20412;-67
2023/10/05 01:01:08;;;;;;;15.43;4.03;;;;;;;;;;5025125;28;20039;-67
2023/10/05 01:03:33;;;;;;;13.15;3.70;;;;;;;;;;5018419;28;20112;-67
2023/10/05 01:06:19;;;;;;;18.77;4.05;;;;;;;;;;5023797;28;20048;-66
2023/10/05 01:08:49;;;;;;;13.75;3.58;;;;;;;;;;5027261;28;20077;-66
2023/10/05 01:11:19;;;;;;;11.10;3.67;;;;;;;;;;5020731;28;20449;-68
2023/10/05 01:13:44;;;;;;;12.35;3.83;;;;;;;;;;5025579;28;20506;-67
2023/10/05 01:16:31;;;;;;;11.35;4.03;;;;;;;;;;5018643;28;20010;-67
2023/10/05 01:18:56;;;;;;;8.70;3.75;;;;;;;;;;5023963;28;20030;-64
2023/10/05 01:21:25;;;;;;;20.75;4.63;;;;;;;;;;5011327;28;20026;-68
2023/10/05 01:23:50;;;;;;;15.53;4.13;;;;;;;;;;5025727;28;20494;-66
2023/10/05 01:26:15;;;;;;;12.70;4.00;;;;;;;;;;5023346;28;20025;-68
2023/10/05 01:28:41;;;;;;;14.38;3.70;;;;;;;;;;5022452;28;20087;-67
2023/10/05 01:31:09;;;;;;;14.23;4.63;;;;;;;;;;5021928;28;20018;-64
2023/10/05 01:33:34;;;;;;;13.98;3.88;;;;;;;;;;5028757;28;20006;-63
2023/10/05 01:35:59;;;;;;;16.25;4.10;;;;;;;;;;5025077;28;20049;-67
2023/10/05 01:38:25;;;;;;;21.25;3.58;;;;;;;;;;5031056;28;20078;-66
2023/10/05 01:40:54;;;;;;;9.25;3.58;;;;;;;;;;5021177;28;20022;-67
2023/10/05 01:43:19;;;;;;;8.73;3.10;;;;;;;;;;5008977;28;20089;-66
2023/10/05 01:45:45;;;;;;;31.90;3.65;;;;;;;;;;5019955;28;20402;-63
2023/10/05 01:48:18;;;;;;;13.52;3.95;;;;;;;;;;5029645;28;20484;-65
2023/10/05 01:50:44;;;;;;;13.43;4.60;;;;;;;;;;5023199;28;20028;-66
2023/10/05 01:53:15;;;;;;;9.32;3.58;;;;;;;;;;5006665;28;20453;-66
2023/10/05 01:55:43;;;;;;;10.77;3.83;;;;;;;;;;5026722;28;20040;-67
2023/10/05 01:58:13;;;;;;;10.70;3.88;;;;;;;;;;5028634;28;20073;-65
2023/10/05 02:00:39;;;;;;;13.30;3.60;;;;;;;;;;5017033;28;20040;-65
2023/10/05 02:03:08;;;;;;;14.82;3.97;;;;;;;;;;5021095;28;20465;-66
2023/10/05 02:05:34;;;;;;;;;;;;;;;;;;5023313;28;20029;-66
2023/10/05 02:07:59;;;;;;;9.30;3.13;;;;;;;;;;5017750;28;19905;-63
2023/10/05 02:10:25;;;;;;;13.55;3.53;;;;;;;;;;5022131;28;20105;-67
2023/10/05 02:12:54;;;;;;;9.43;3.45;;;;;;;;;;5026344;28;20022;-67
2023/10/05 02:15:29;;;;;;;11.70;3.13;;;;;;;;;;5018280;28;20072;-63
2023/10/05 02:17:54;;;;;;;10.93;3.20;;;;;;;;;;5022892;28;20017;-66
2023/10/05 02:20:56;;;;;;;11.23;3.75;;;;;;;;;;5018046;28;20020;-65
2023/10/05 02:23:28;;;;;;;17.48;3.75;;;;;;;;;;5022749;28;20125;-64
2023/10/05 02:25:56;;;;;;;11.73;3.65;;;;;;;;;;5025039;28;20014;-65
2023/10/05 02:28:27;;;;;;;15.88;3.72;;;;;;;;;;5000630;28;20403;-67
2023/10/05 02:30:59;;;;;;;11.02;3.67;;;;;;;;;;5005652;28;20025;-67
2023/10/05 02:33:27;;;;;;;11.77;3.60;;;;;;;;;;5018238;28;20018;-65
2023/10/05 02:35:56;;;;;;;7.82;2.95;;;;;;;;;;5020569;28;20450;-67
2023/10/05 02:38:22;;;;;;;11.25;3.47;;;;;;;;;;5031363;28;20083;-68
2023/10/05 02:40:54;;;;;;;10.48;3.83;;;;;;;;;;5019234;28;20050;-65
2023/10/05 02:43:26;;;;;;;15.30;3.67;;;;;;;;;;5025856;28;20017;-65
2023/10/05 02:45:55;;;;;;;13.75;3.47;;;;;;;;;;5021628;28;20014;-67
2023/10/05 02:48:21;;;;;;;17.48;3.85;;;;;;;;;;5029807;28;20083;-68
2023/10/05 02:50:51;;;;;;;18.40;3.70;;;;;;;;;;5019871;28;20510;-67
2023/10/05 02:53:18;;;;;;;13.98;3.60;;;;;;;;;;5022998;28;20043;-66
2023/10/05 02:55:43;;;;;;;14.23;3.90;;;;;;;;;;5020606;28;20040;-67
2023/10/05 02:58:09;;;;;;;18.05;4.75;;;;;;;;;;5021914;28;20400;-64
2023/10/05 03:00:34;;;;;;;13.65;3.97;;;;;;;;;;5024244;28;20079;-68
2023/10/05 03:03:03;;;;;;;14.02;4.07;;;;;;;;;;5020799;28;20009;-67
2023/10/05 03:05:32;;;;;;;9.98;3.70;;;;;;;;;;5021546;28;20089;-65
2023/10/05 03:07:58;;;;;;;14.77;4.23;;;;;;;;;;5017880;28;20101;-67
2023/10/05 03:10:23;;;;;;;10.85;4.13;;;;;;;;;;5021338;28;20240;-66
2023/10/05 03:12:49;;;;;;;13.80;4.95;;;;;;;;;;5007035;28;20082;-66
2023/10/05 03:15:14;;;;;;;12.95;4.47;;;;;;;;;;5016640;28;20101;-66
2023/10/05 03:17:39;;;;;;;16.27;3.80;;;;;;;;;;5025847;28;20017;-64
2023/10/05 03:20:15;;;;;;;14.43;3.97;;;;;;;;;;5022507;28;20090;-67
2023/10/05 03:22:41;;;;;;;13.65;3.75;;;;;;;;;;5023369;28;20120;-66
2023/10/05 03:25:06;;;;;;;11.50;3.83;;;;;;;;;;5020126;28;20041;-67
2023/10/05 03:27:31;;;;;;;13.77;4.38;;;;;;;;;;5021408;28;20017;-67
2023/10/05 03:30:03;;;;;;;13.98;4.53;;;;;;;;;;5024709;28;20044;-66
2023/10/05 03:32:28;;;;;;;13.77;3.65;;;;;;;;;;5003103;28;20018;-67
2023/10/05 03:34:55;;;;;;;16.98;4.30;;;;;;;;;;5022751;28;20476;-66
2023/10/05 03:37:21;;;;;;;17.15;4.28;;;;;;;;;;5025905;28;20028;-65
2023/10/05 03:42:27;;;;;;;15.20;4.15;;;;;;;;;;5024310;28;20026;-66
2023/10/05 03:45:03;;;;;;;17.30;4.20;;;;;;;;;;5020665;28;20426;-66
2023/10/05 03:47:28;;;;;;;14.95;4.57;;;;;;;;;;5027181;28;20078;-67
2023/10/05 03:49:56;;;;;;;17.38;4.47;;;;;;;;;;5027209;28;20017;-64
2023/10/05 03:52:29;;;;;;;13.77;4.00;;;;;;;;;;5020435;28;20029;-67
2023/10/05 03:54:55;;;;;;;17.77;4.03;;;;;;;;;;5018273;28;20376;-65
2023/10/05 03:57:21;;;;;;;18.77;4.97;;;;;;;;;;5020925;28;20089;-67
2023/10/05 03:59:46;;;;;;;13.15;4.53;;;;;;;;;;5025935;28;20112;-65
2023/10/05 04:02:13;;;;;;;11.30;4.70;;;;;;;;;;5006896;28;20018;-67
2023/10/05 04:04:42;;;;;;;15.73;4.68;;;;;;;;;;5025774;28;20018;-68
2023/10/05 04:07:08;;;;;;;16.52;5.28;;;;;;;;;;5029209;28;20026;-63
2023/10/05 04:09:35;;;;;;;14.57;4.00;;;;;;;;;;5028664;28;20025;-67
2023/10/05 04:12:03;;;;;;;12.55;4.28;;;;;;;;;;5034319;28;20607;-67
2023/10/05 04:14:28;;;;;;;11.40;3.63;;;;;;;;;;5025326;28;20034;-65
2023/10/05 04:16:54;;;;;;;18.95;4.88;;;;;;;;;;5027987;28;20021;-66
2023/10/05 04:19:19;;;;;;;15.48;5.25;;;;;;;;;;5003373;28;20024;-66
2023/10/05 04:21:45;;;;;;;14.80;4.68;;;;;;;;;;5024494;28;20438;-63
2023/10/05 04:24:14;;;;;;;15.38;4.65;;;;;;;;;;5022726;28;20382;-67
2023/10/05 04:26:44;;;;;;;11.25;4.13;;;;;;;;;;5019219;28;20440;-65
2023/10/05 04:29:09;;;;;;;18.95;4.93;;;;;;;;;;5017170;28;20052;-67
2023/10/05 04:31:37;;;;;;;17.65;4.57;;;;;;;;;;5021382;28;20013;-66
2023/10/05 04:34:11;;;;;;;14.50;4.78;;;;;;;;;;5026459;28;20233;-67
2023/10/05 04:36:36;;;;;;;15.75;4.32;;;;;;;;;;5023126;28;20462;-64
2023/10/05 04:39:04;;;;;;;14.13;4.05;;;;;;;;;;5026233;28;20022;-69
2023/10/05 04:41:38;;;;;;;16.67;4.97;;;;;;;;;;5020526;28;20114;-66
2023/10/05 04:44:06;;;;;;;11.75;4.15;;;;;;;;;;5021517;28;20042;-68
2023/10/05 04:46:32;;;;;;;14.25;4.53;;;;;;;;;;5028853;28;20026;-67
2023/10/05 04:49:08;;;;;;;13.02;3.72;;;;;;;;;;5026311;28;20263;-66
2023/10/05 04:51:35;;;;;;;14.75;4.43;;;;;;;;;;5027509;28;20021;-67
2023/10/05 04:54:01;;;;;;;16.23;4.53;;;;;;;;;;5018714;28;20449;-68
2023/10/05 04:56:39;;;;;;;18.08;5.15;;;;;;;;;;5025597;28;20083;-66
2023/10/05 05:07:00;;;;;;;19.60;4.45;;;;;;;;;;5027050;28;20389;-65
2023/10/05 05:09:34;;;;;;;15.85;4.85;;;;;;;;;;5030763;28;20032;-62
2023/10/05 05:12:03;;;;;;;16.25;5.20;;;;;;;;;;5026692;28;20017;-65
2023/10/05 05:14:35;;;;;;;16.15;5.18;;;;;;;;;;5026102;28;20026;-64
2023/10/05 05:17:02;;;;;;;15.82;4.57;;;;;;;;;;5029199;28;20072;-66
2023/10/05 05:19:27;;;;;;;11.98;4.65;;;;;;;;;;5007976;28;20088;-65
2023/10/05 05:21:53;;;;;;;16.60;3.78;;;;;;;;;;5028402;28;20026;-65
2023/10/05 05:24:18;;;;;;;14.00;5.13;;;;;;;;;;5025661;28;20124;-64
2023/10/05 05:26:45;;;;;;;17.50;5.35;;;;;;;;;;5026901;28;20025;-65
2023/10/05 05:29:11;;;;;;;20.47;4.97;;;;;;;;;;5030169;28;20017;-65
2023/10/05 05:31:36;;;;;;;14.43;5.38;;;;;;;;;;5017408;28;20016;-64
2023/10/05 05:34:02;;;;;;;13.35;4.20;;;;;;;;;;5011368;28;20105;-64
2023/10/05 05:36:28;;;;;;;16.02;4.35;;;;;;;;;;5031556;28;20021;-65
2023/10/05 05:38:56;;;;;;;17.10;4.85;;;;;;;;;;5031966;28;20027;-65
2023/10/05 05:41:27;;;;;;;18.75;5.43;;;;;;;;;;5031430;28;20208;-63
2023/10/05 05:43:53;;;;;;;14.10;4.05;;;;;;;;;;5032084;28;20056;-66
2023/10/05 05:46:19;;;;;;;22.65;4.60;;;;;;;;;;5030076;28;20025;-63
2023/10/05 05:48:48;;;;;;;15.82;4.65;;;;;;;;;;5029614;28;20619;-65
2023/10/05 05:51:23;;;;;;;;;;;;;;;;;;5014205;28;20014;-65
2023/10/05 05:53:48;;;;;;;18.10;4.45;;;;;;;;;;5030979;28;19905;-66
2023/10/05 05:56:19;;;;;;;16.80;5.32;;;;;;;;;;5028952;28;20026;-66
2023/10/05 05:58:45;;;;;;;25.27;4.70;;;;;;;;;;5030662;28;20096;-67
2023/10/05 06:01:14;;;;;;;25.13;4.10;;;;;;;;;;5029144;28;20025;-64
2023/10/05 06:03:39;;;;;;;17.42;4.70;;;;;;;;;;5025924;28;20417;-65
2023/10/05 06:06:04;;;;;;;14.48;4.38;;;;;;;;;;5026541;28;20543;-64
2023/10/05 06:08:30;;;;;;;15.15;4.95;;;;;;;;;;5026295;28;20032;-62
2023/10/05 06:10:56;;;;;;;15.35;4.40;;;;;;;;;;5027031;28;20120;-64
2023/10/05 06:13:22;;;;;;;18.70;4.53;;;;;;;;;;5029671;28;20029;-63
2023/10/05 06:15:47;;;;;;;16.05;4.28;;;;;;;;;;5029355;28;20096;-66
2023/10/05 06:18:13;;;;;;;20.33;4.95;;;;;;;;;;5029427;28;20100;-65
2023/10/05 06:20:38;;;;;;;23.00;5.07;;;;;;;;;;5028463;28;20093;-64
2023/10/05 06:23:05;;;;;;;18.90;5.25;;;;;;;;;;5031752;28;20476;-65
2023/10/05 06:25:31;;;;;;;11.68;4.25;;;;;;;;;;5030539;28;20032;-63
2023/10/05 06:27:56;;;;;;;15.50;5.22;;;;;;;;;;5024487;28;20056;-65
2023/10/05 06:30:21;;;;;;;13.95;4.68;;;;;;;;;;5026028;28;20021;-63
2023/10/05 06:32:47;;;;;;;13.73;4.38;;;;;;;;;;5022880;28;20017;-66
2023/10/05 06:35:12;;;;;;;22.80;5.47;;;;;;;;;;5020245;28;20477;-63
2023/10/05 06:37:41;;;;;;;15.77;4.22;;;;;;;;;;5029172;28;20029;-65
2023/10/05 06:40:12;;;;;;;13.23;4.15;;;;;;;;;;5028198;28;20018;-67
2023/10/05 06:42:39;;;;;;;15.77;4.32;;;;;;;;;;5012191;28;20057;-66
2023/10/05 06:45:07;;;;;;;25.38;5.32;;;;;;;;;;5027444;28;20018;-65
2023/10/05 06:47:36;;;;;;;14.82;4.43;;;;;;;;;;5031979;28;20045;-66
2023/10/05 06:50:08;;;;;;;20.35;4.35;;;;;;;;;;5024260;28;20025;-66
2023/10/05 06:52:36;;;;;;;16.45;3.92;;;;;;;;;;5031387;28;20032;-66
2023/10/05 06:55:07;;;;;;;17.67;4.13;;;;;;;;;;5029042;28;20040;-64
2023/10/05 06:57:32;;;;;;;13.55;5.22;;;;;;;;;;5028318;28;20025;-65
2023/10/05 06:59:58;;;;;;;14.88;4.25;;;;;;;;;;5010852;28;20026;-64
2023/10/05 07:02:23;;;;;;;17.50;4.13;;;;;;;;;;5027518;28;20335;-66
2023/10/05 07:04:48;;;;;;;19.83;4.97;;;;;;;;;;5026815;28;20031;-64
2023/10/05 07:07:14;;;;;;;13.93;4.32;;;;;;;;;;5028432;28;20041;-64
2023/10/05 07:09:39;;;;;;;19.08;4.60;;;;;;;;;;5025653;28;20021;-65
2023/10/05 07:12:04;;;;;;;17.48;4.03;;;;;;;;;;5034218;28;20025;-64
2023/10/05 07:14:29;;;;;;;19.20;4.95;;;;;;;;;;5029250;28;20017;-64
2023/10/05 07:16:55;;;;;;;20.45;5.35;;;;;;;;;;5027375;28;20664;-66
2023/10/05 07:19:20;;;;;;;15.05;4.40;;;;;;;;;;5026953;28;20021;-65
2023/10/05 07:21:45;;;;;;;17.00;3.67;;;;;;;;;;5028030;28;20032;-65
2023/10/05 07:24:10;;;;;;;15.45;3.42;;;;;;;;;;5029222;28;20021;-64
2023/10/05 07:26:37;;;;;;;11.90;3.22;;;;;;;;;;5019604;28;20029;-65
2023/10/05 07:29:04;;;;;;;15.02;3.67;;;;;;;;;;5024795;28;20025;-66
2023/10/05 07:31:29;;;;;;;13.68;3.80;;;;;;;;;;5025750;28;20024;-65
2023/10/05 07:33:54;;;;;;;18.98;4.10;;;;;;;;;;5021367;28;20096;-64
2023/10/05 07:36:20;;;;;;;13.73;4.07;;;;;;;;;;5027368;28;20494;-64
2023/10/05 07:38:45;;;;;;;12.57;3.97;;;;;;;;;;5027384;28;20025;-65
2023/10/05 07:41:11;;;;;;;18.13;3.50;;;;;;;;;;5028645;28;20025;-65
2023/10/05 07:43:37;;;;;;;13.88;3.85;;;;;;;;;;5025412;28;20013;-65
2023/10/05 07:46:06;;;;;;;13.27;4.25;;;;;;;;;;5028310;28;20025;-69
2023/10/05 07:48:31;;;;;;;10.50;3.25;;;;;;;;;;5024971;28;20121;-64
2023/10/05 07:50:57;;;;;;;12.85;3.58;;;;;;;;;;5028511;28;20092;-65
2023/10/05 07:53:22;;;;;;;14.57;3.67;;;;;;;;;;5021059;28;20010;-65
2023/10/05 07:55:47;;;;;;;14.82;3.80;;;;;;;;;;5028222;28;20010;-65
2023/10/05 07:58:12;;;;;;;14.68;4.28;;;;;;;;;;5028624;28;20045;-62
2023/10/05 08:00:39;;;;;;;16.50;3.53;;;;;;;;;;5011384;28;20587;-66
2023/10/05 08:03:05;;;;;;;17.85;3.85;;;;;;;;;;5007167;28;20056;-66
2023/10/05 08:05:30;;;;;;;11.65;3.15;;;;;;;;;;5027003;28;20021;-66
2023/10/05 08:07:56;;;;;;;13.82;2.88;;;;;;;;;;5022635;28;20018;-64
2023/10/05 08:10:23;;;;;;;15.63;3.60;;;;;;;;;;5028889;28;20512;-64
2023/10/05 08:12:53;;;;;;;12.93;3.28;;;;;;;;;;5010558;28;20544;-64
2023/10/05 08:15:18;;;;;;;11.73;3.03;;;;;;;;;;5032102;28;20022;-66
2023/10/05 08:17:44;;;;;;;19.05;4.55;;;;;;;;;;5024240;28;20109;-60
2023/10/05 08:20:10;;;;;;;10.60;3.53;;;;;;;;;;5031723;28;20028;-65
2023/10/05 08:22:35;;;;;;;22.17;4.03;;;;;;;;;;5034705;28;20100;-64
2023/10/05 08:25:09;;;;;;;13.07;3.13;;;;;;;;;;5029953;28;20025;-65
2023/10/05 08:27:36;;;;;;;11.85;3.00;;;;;;;;;;5032194;28;20052;-64
2023/10/05 08:30:01;;;;;;;20.42;4.30;;;;;;;;;;5032701;28;20024;-65
2023/10/05 08:32:27;;;;;;;12.88;4.07;;;;;;;;;;5032126;28;20014;-63
2023/10/05 08:34:53;;;;;;;15.30;3.72;;;;;;;;;;5028014;28;20053;-64
2023/10/05 08:37:22;;;;;;;11.88;3.00;;;;;;;;;;5022850;28;20041;-64
2023/10/05 08:39:47;;;;;;;14.68;3.03;;;;;;;;;;5031627;28;20025;-65
2023/10/05 08:42:16;;;;;;;14.55;3.35;;;;;;;;;;5031982;28;20021;-61
2023/10/05 08:44:44;;;;;;;;;;;;;;;;;;5027641;28;20099;-64
2023/10/05 08:47:12;;;;;;;8.85;3.05;;;;;;;;;;5037783;28;19913;-63
2023/10/05 08:49:38;;;;;;;13.65;3.70;;;;;;;;;;5031465;28;20025;-65
2023/10/05 08:52:13;;;;;;;12.18;3.22;;;;;;;;;;5031038;28;20068;-63
2023/10/05 08:54:38;;;;;;;16.50;3.58;;;;;;;;;;5031191;28;20048;-65
2023/10/05 08:57:10;;;;;;;18.02;3.85;;;;;;;;;;5027975;28;20041;-66
2023/10/05 08:59:39;;;;;;;10.02;3.42;;;;;;;;;;5030505;28;20033;-61
2023/10/05 09:02:07;;;;;;;11.40;2.97;;;;;;;;;;5028773;28;20026;-64
2023/10/05 09:04:45;;;;;;;10.73;3.22;;;;;;;;;;5030118;28;20124;-64
2023/10/05 09:07:35;;;;;;;11.73;3.42;;;;;;;;;;5024731;28;20102;-64
2023/10/05 09:10:00;;;;;;;9.00;2.72;;;;;;;;;;5024932;28;20040;-65
2023/10/05 09:12:41;;;;;;;10.70;2.70;;;;;;;;;;5024086;28;20026;-65
2023/10/05 09:15:21;;;;;;;13.40;3.03;;;;;;;;;;5028180;28;20014;-65
2023/10/05 09:17:59;;;;;;;9.75;2.38;;;;;;;;;;5025879;28;20389;-63
2023/10/05 09:20:33;;;;;;;16.27;3.30;;;;;;;;;;5028762;28;20025;-66
2023/10/05 09:23:00;;;;;;;13.98;2.92;;;;;;;;;;5034507;28;20072;-65
2023/10/05 09:25:31;;;;;;;13.48;2.80;;;;;;;;;;5027227;28;20025;-67
2023/10/05 09:28:05;;;;;;;9.18;2.42;;;;;;;;;;5030811;28;20017;-66
2023/10/05 09:30:32;;;;;;;19.63;4.60;;;;;;;;;;5030560;28;20022;-61
2023/10/05 09:33:06;;;;;;;20.00;3.83;;;;;;;;;;5025159;28;20022;-66
2023/10/05 09:35:33;;;;;;;15.10;3.72;;;;;;;;;;5025276;28;20021;-66
2023/10/05 09:37:58;;;;;;;11.82;2.95;;;;;;;;;;5011176;28;20024;-65
2023/10/05 09:40:24;;;;;;;13.65;4.07;;;;;;;;;;5029909;28;20029;-66
2023/10/05 09:42:52;;;;;;;13.10;2.92;;;;;;;;;;5029213;28;20021;-66
2023/10/05 09:45:19;;;;;;;11.95;2.90;;;;;;;;;;5027784;28;20092;-66
2023/10/05 09:47:46;;;;;;;13.15;2.72;;;;;;;;;;5031025;28;20026;-65
2023/10/05 09:50:13;;;;;;;17.48;3.35;;;;;;;;;;5029152;28;20028;-65
2023/10/05 09:52:46;;;;;;;18.63;3.20;;;;;;;;;;5012479;28;20124;-67
2023/10/05 09:55:12;;;;;;;6.80;2.30;;;;;;;;;;5028342;28;20025;-65
2023/10/05 09:57:41;;;;;;;19.50;3.67;;;;;;;;;;5024096;28;20024;-66
2023/10/05 10:00:55;;;;;;;12.88;3.60;;;;;;;;;;5027928;28;20113;-67
2023/10/05 10:03:03;;;;;;;15.32;3.45;;;;;;;;;;5013638;28;20489;-65
2023/10/05 10:05:33;;;;;;;11.05;2.92;;;;;;;;;;5030174;28;20542;-65
2023/10/05 10:08:23;;;;;;;7.80;2.45;;;;;;;;;;5028102;28;20473;-61
2023/10/05 10:11:17;;;;;;;13.80;2.90;;;;;;;;;;5019618;28;20078;-66
2023/10/05 10:13:49;;;;;;;10.65;2.58;;;;;;;;;;5022241;28;20083;-67
2023/10/05 10:16:16;;;;;;;16.25;2.92;;;;;;;;;;5023899;28;20038;-66
2023/10/05 10:18:45;;;;;;;14.57;2.95;;;;;;;;;;5005321;28;20021;-64
2023/10/05 10:21:24;;;;;;;12.10;2.80;;;;;;;;;;5025494;28;20093;-65
2023/10/05 10:24:06;;;;;;;12.45;2.65;;;;;;;;;;5031967;28;20025;-64
2023/10/05 10:26:36;;;;;;;11.38;2.35;;;;;;;;;;5029494;28;20026;-64
2023/10/05 10:29:05;;;;;;;16.42;2.53;;;;;;;;;;5030963;28;20071;-65
2023/10/05 10:31:30;;;;;;;14.20;2.88;;;;;;;;;;5021870;28;20070;-63
2023/10/05 10:34:10;;;;;;;12.70;2.47;;;;;;;;;;5027746;28;20022;-66
2023/10/05 10:36:53;;;;;;;9.32;2.60;;;;;;;;;;5029891;28;20071;-66
2023/10/05 10:39:23;;;;;;;11.45;2.92;;;;;;;;;;5025747;28;20022;-64
2023/10/05 10:42:00;;;;;;;13.75;3.25;;;;;;;;;;5029131;28;20489;-65
2023/10/05 10:44:26;;;;;;;14.48;2.92;;;;;;;;;;5022114;28;20018;-63
2023/10/05 10:47:05;;;;;;;14.32;2.67;;;;;;;;;;5028679;28;20021;-65
2023/10/05 10:49:31;;;;;;;11.40;3.30;;;;;;;;;;5027283;28;20025;-65
2023/10/05 10:51:58;;;;;;;11.82;2.63;;;;;;;;;;5028496;28;20028;-66
2023/10/05 10:54:23;;;;;;;13.32;2.90;;;;;;;;;;5028221;28;20021;-66
2023/10/05 10:56:49;;;;;;;16.73;3.38;;;;;;;;;;5026616;28;20045;-66
2023/10/05 10:59:14;;;;;;;10.03;2.77;;;;;;;;;;5026162;28;20037;-67
2023/10/05 11:01:43;;;;;;;6.93;2.58;;;;;;;;;;5016987;28;20561;-62
2023/10/05 11:04:23;;;;;;;;;;;;;;;;;;5025582;28;20013;-65
2023/10/05 11:06:50;;;;;;;9.50;2.50;;;;;;;;;;5027904;28;19959;-66
2023/10/05 11:09:15;;;;;;;13.50;2.55;;;;;;;;;;5027595;28;20021;-65
2023/10/05 11:11:42;;;;;;;11.85;3.45;;;;;;;;;;5021230;28;20040;-64
2023/10/05 11:14:21;;;;;;;12.77;3.17;;;;;;;;;;5028903;28;20013;-68
2023/10/05 11:16:49;;;;;;;13.85;3.20;;;;;;;;;;5003674;28;20013;-65
2023/10/05 11:19:24;;;;;;;9.27;2.30;;;;;;;;;;5028213;28;20024;-66
2023/10/05 11:21:49;;;;;;;8.65;2.15;;;;;;;;;;5026828;28;20036;-65
2023/10/05 11:24:18;;;;;;;10.85;3.03;;;;;;;;;;5030661;28;20396;-65
2023/10/05 11:29:20;;;;;;;10.30;2.53;;;;;;;;;;5028339;28;20007;-65
2023/10/05 11:31:46;;;;;;;14.57;3.90;;;;;;;;;;5028409;28;20109;-65
2023/10/05 11:34:12;;;;;;;10.25;3.08;;;;;;;;;;5028032;28;20465;-65
2023/10/05 11:36:39;;;;;;;13.50;2.72;;;;;;;;;;5030328;28;20638;-64
2023/10/05 11:39:06;;;;;;;9.73;2.38;;;;;;;;;;5028269;28;20704;-63
2023/10/05 11:41:33;;;;;;;10.55;3.00;;;;;;;;;;5027963;28;20021;-66
2023/10/05 11:43:58;;;;;;;8.70;2.70;;;;;;;;;;5028197;28;20071;-66
2023/10/05 11:46:24;;;;;;;11.90;2.80;;;;;;;;;;5027341;28;20029;-66
2023/10/05 11:48:56;;;;;;;9.43;2.83;;;;;;;;;;5008478;28;20040;-65
2023/10/05 11:51:37;;;;;;;10.13;2.80;;;;;;;;;;5026422;28;20462;-63
2023/10/05 11:54:04;;;;;;;13.77;2.78;;;;;;;;;;5027851;28;20022;-65
2023/10/05 11:56:30;;;;;;;13.48;3.08;;;;;;;;;;5028037;28;20013;-65
2023/10/05 11:58:57;;;;;;;9.50;3.03;;;;;;;;;;5010160;28;20113;-65
2023/10/05 12:01:24;;;;;;;14.77;4.05;;;;;;;;;;5009453;28;20566;-66
2023/10/05 12:03:49;;;;;;;14.43;4.18;;;;;;;;;;5027756;28;20024;-67
2023/10/05 12:06:23;;;;;;;12.52;2.83;;;;;;;;;;5029666;28;20025;-66
2023/10/05 12:08:49;;;;;;;12.77;2.67;;;;;;;;;;5016351;28;20072;-65
2023/10/05 12:11:15;;;;;;;10.52;3.15;;;;;;;;;;5022370;28;20441;-66
2023/10/05 12:13:40;;;;;;;10.35;2.67;;;;;;;;;;5017121;28;20025;-66
2023/10/05 12:16:11;;;;;;;9.07;2.33;;;;;;;;;;5026976;28;20563;-66
2023/10/05 12:18:37;;;;;;;10.68;2.72;;;;;;;;;;5028499;28;20389;-65
2023/10/05 12:21:03;;;;;;;12.00;2.72;;;;;;;;;;5029728;28;20028;-66
2023/10/05 12:23:28;;;;;;;11.02;3.17;;;;;;;;;;5025549;28;20076;-66
2023/10/05 12:25:53;;;;;;;9.32;2.70;;;;;;;;;;5027278;28;20393;-68
2023/10/05 12:28:23;;;;;;;14.25;2.83;;;;;;;;;;5025355;28;20010;-66
2023/10/05 12:30:48;;;;;;;15.75;2.92;;;;;;;;;;5026068;28;20032;-64
2023/10/05 12:33:15;;;;;;;9.48;2.58;;;;;;;;;;5010235;28;20092;-66
2023/10/05 12:35:42;;;;;;;14.00;2.50;;;;;;;;;;5017420;28;20542;-66
2023/10/05 12:38:08;;;;;;;8.57;2.55;;;;;;;;;;5028025;28;20021;-67
2023/10/05 12:40:34;;;;;;;17.35;3.10;;;;;;;;;;5023202;28;20049;-66
2023/10/05 12:43:00;;;;;;;9.65;2.38;;;;;;;;;;5028489;28;20041;-64
2023/10/05 12:45:26;;;;;;;13.85;2.65;;;;;;;;;;5027567;28;20030;-66
2023/10/05 12:47:54;;;;;;;11.90;2.40;;;;;;;;;;5029797;28;20017;-65
2023/10/05 12:50:25;;;;;;;13.25;2.67;;;;;;;;;;5027082;28;20469;-65
2023/10/05 12:52:51;;;;;;;10.77;2.28;;;;;;;;;;5027241;28;20028;-64
2023/10/05 12:55:18;;;;;;;9.60;3.00;;;;;;;;;;5022674;28;20070;-65
2023/10/05 12:57:44;;;;;;;12.25;2.70;;;;;;;;;;5023053;28;20022;-66
2023/10/05 13:00:19;;;;;;;15.05;2.72;;;;;;;;;;5028377;28;20596;-65
2023/10/05 13:02:47;;;;;;;14.45;4.07;;;;;;;;;;5031155;28;20029;-63
2023/10/05 13:05:17;;;;;;;13.65;2.47;;;;;;;;;;5029399;28;20017;-64
2023/10/05 13:07:43;;;;;;;9.23;2.47;;;;;;;;;;5028209;28;20040;-63
2023/10/05 13:10:14;;;;;;;8.15;1.98;;;;;;;;;;5028284;28;20032;-65
2023/10/05 13:12:39;;;;;;;14.15;3.78;;;;;;;;;;5029076;28;20017;-66
2023/10/05 13:15:08;;;;;;;11.88;2.75;;;;;;;;;;5027354;28;20036;-65
2023/10/05 13:17:37;;;;;;;15.27;3.25;;;;;;;;;;5023933;28;20017;-64
2023/10/05 13:20:03;;;;;;;13.50;2.65;;;;;;;;;;5027855;28;20072;-66
2023/10/05 13:22:29;;;;;;;10.30;2.72;;;;;;;;;;5030994;28;20056;-66
2023/10/05 13:24:57;;;;;;;13.02;2.85;;;;;;;;;;5030463;28;20028;-66
2023/10/05 13:27:22;;;;;;;9.00;2.72;;;;;;;;;;5023556;28;20102;-66
2023/10/05 13:29:47;;;;;;;15.88;2.60;;;;;;;;;;5028437;28;20029;-65
2023/10/05 13:32:13;;;;;;;14.10;2.65;;;;;;;;;;5028668;28;20017;-64
2023/10/05 13:34:38;;;;;;;14.00;2.65;;;;;;;;;;5026002;28;20013;-66
2023/10/05 13:37:07;;;;;;;16.83;3.38;;;;;;;;;;5032416;28;20025;-63
2023/10/05 13:39:34;;;;;;;11.48;2.47;;;;;;;;;;5024383;28;20022;-63
2023/10/05 13:42:09;;;;;;;8.75;2.45;;;;;;;;;;5026899;28;20100;-65
2023/10/05 13:44:35;;;;;;;11.00;2.97;;;;;;;;;;5028867;28;20427;-65
2023/10/05 13:47:02;;;;;;;9.85;2.30;;;;;;;;;;5031083;28;20503;-67
2023/10/05 13:49:30;;;;;;;9.25;2.38;;;;;;;;;;5030092;28;20021;-61
2023/10/05 13:51:57;;;;;;;8.07;2.63;;;;;;;;;;5026556;28;20021;-62
2023/10/05 13:54:23;;;;;;;20.67;3.63;;;;;;;;;;5028353;28;20496;-64
2023/10/05 13:56:49;;;;;;;9.30;2.25;;;;;;;;;;5030188;28;20029;-64
2023/10/05 13:59:17;;;;;;;12.40;2.47;;;;;;;;;;5027676;28;20025;-64
2023/10/05 14:01:43;;;;;;;8.00;2.40;;;;;;;;;;5028803;28;20028;-65
2023/10/05 14:04:09;;;;;;;8.90;2.47;;;;;;;;;;5030279;28;20025;-66
2023/10/05 14:06:36;;;;;;;11.25;2.90;;;;;;;;;;5022561;28;20022;-66
2023/10/05 14:09:05;;;;;;;9.52;2.28;;;;;;;;;;5025432;28;20053;-64
2023/10/05 14:11:33;;;;;;;9.85;2.50;;;;;;;;;;5029262;28;20020;-65
2023/10/05 14:13:59;;;;;;;13.10;2.50;;;;;;;;;;5024169;28;20598;-65
2023/10/05 14:16:24;;;;;;;10.73;2.55;;;;;;;;;;5024576;28;20026;-66
2023/10/05 14:18:50;;;;;;;8.82;2.47;;;;;;;;;;5030487;28;20021;-68
2023/10/05 14:21:16;;;;;;;9.43;2.43;;;;;;;;;;5028934;28;20149;-72
2023/10/05 14:23:43;;;;;;;9.40;2.67;;;;;;;;;;5029461;28;20239;-67
2023/10/05 14:26:10;;;;;;;8.85;2.58;;;;;;;;;;5029192;28;20021;-69
2023/10/05 14:28:36;;;;;;;8.18;2.40;;;;;;;;;;5028881;28;20451;-70
2023/10/05 14:31:03;;;;;;;11.00;2.60;;;;;;;;;;5011232;28;20112;-69
2023/10/05 14:33:29;;;;;;;10.55;2.70;;;;;;;;;;5028708;28;20093;-69
2023/10/05 14:35:57;;;;;;;8.85;2.38;;;;;;;;;;5028055;28;20009;-70
2023/10/05 14:38:24;;;;;;;11.38;2.35;;;;;;;;;;5024102;28;20113;-66
2023/10/05 14:40:52;;;;;;;12.82;3.17;;;;;;;;;;5026139;28;20021;-66
2023/10/05 14:43:20;;;;;;;11.68;2.80;;;;;;;;;;5027163;28;20025;-63
2023/10/05 14:45:49;;;;;;;10.52;2.17;;;;;;;;;;5029821;28;20056;-66
2023/10/05 14:48:15;;;;;;;9.02;2.33;;;;;;;;;;5030134;28;20091;-65
2023/10/05 14:50:40;;;;;;;9.15;2.85;;;;;;;;;;5028762;28;20033;-64
2023/10/05 14:53:11;;;;;;;7.80;2.60;;;;;;;;;;5028442;28;20044;-66
2023/10/05 14:55:37;;;;;;;9.27;1.85;;;;;;;;;;5028140;28;20018;-67